sensor_id;sensor_type;location;lat;lon;timestamp;pressure;altitude;pressure_sealevel;temperature;humidity
22930;BME280;11630;42.660;23.292;2023-05-29T00:00:54;69159.18;;;14.73;100.00
22930;BME280;11630;42.660;23.292;2023-05-29T00:03:25;69143.89;;;14.59;100.00
22930;BME280;11630;42.660;23.292;2023-05-29T00:05:56;69172.30;;;14.85;100.00
22930;BME280;11630;42.660;23.292;2023-05-29T00:08:27;69161.09;;;14.76;100.00
22930;BME280;11630;42.660;23.292;2023-05-29T00:10:57;69149.90;;;14.67;100.00
22930;BME280;11630;42.660;23.292;2023-05-29T00:13:28;69125.60;;;14.49;100.00
22930;BME280;11630;42.660;23.292;2023-05-29T00:15:59;69108.15;;;14.28;100.00
22930;BME280;11630;42.660;23.292;2023-05-29T00:18:30;69110.34;;;14.30;100.00
22930;BME280;11630;42.660;23.292;2023-05-29T00:21:01;69117.69;;;14.38;100.00
22930;BME280;11630;42.660;23.292;2023-05-29T00:23:32;69131.61;;;14.47;100.00
22930;BME280;11630;42.660;23.292;2023-05-29T00:26:03;69116.61;;;14.37;100.00
22930;BME280;11630;42.660;23.292;2023-05-29T00:28:35;69131.61;;;14.47;100.00
22930;BME280;11630;42.660;23.292;2023-05-29T00:31:06;69134.62;;;14.53;100.00
22930;BME280;11630;42.660;23.292;2023-05-29T00:33:37;69125.88;;;14.55;100.00
22930;BME280;11630;42.660;23.292;2023-05-29T00:36:09;69133.52;;;14.55;100.00
22930;BME280;11630;42.660;23.292;2023-05-29T00:38:40;69146.61;;;14.64;100.00
22930;BME280;11630;42.660;23.292;2023-05-29T00:41:15;69134.89;;;14.52;100.00
22930;BME280;11630;42.660;23.292;2023-05-29T00:43:45;69134.91;;;14.47;100.00
22930;BME280;11630;42.660;23.292;2023-05-29T00:46:17;69131.62;;;14.44;100.00
22930;BME280;11630;42.660;23.292;2023-05-29T00:48:48;69129.16;;;14.41;100.00
22930;BME280;11630;42.660;23.292;2023-05-29T00:51:19;69100.51;;;14.21;100.00
22930;BME280;11630;42.660;23.292;2023-05-29T00:53:50;69104.33;;;14.24;100.00
22930;BME280;11630;42.660;23.292;2023-05-29T00:56:24;69109.80;;;14.24;100.00
22930;BME280;11630;42.660;23.292;2023-05-29T00:58:54;69100.23;;;14.24;100.00
22930;BME280;11630;42.660;23.292;2023-05-29T01:01:25;69118.25;;;14.36;100.00
22930;BME280;11630;42.660;23.292;2023-05-29T01:03:56;69126.16;;;14.44;100.00
22930;BME280;11630;42.660;23.292;2023-05-29T01:06:28;69139.27;;;14.56;100.00
22930;BME280;11630;42.660;23.292;2023-05-29T01:08:59;69143.37;;;14.56;100.00
22930;BME280;11630;42.660;23.292;2023-05-29T01:14:25;69157.00;;;14.73;100.00
22930;BME280;11630;42.660;23.292;2023-05-29T01:16:51;69161.64;;;14.74;100.00
22930;BME280;11630;42.660;23.292;2023-05-29T01:22:34;69159.45;;;14.72;100.00
22930;BME280;11630;42.660;23.292;2023-05-29T01:24:59;69149.89;;;14.69;100.00
22930;BME280;11630;42.660;23.292;2023-05-29T01:27:33;69164.10;;;14.67;100.00
22930;BME280;11630;42.660;23.292;2023-05-29T01:30:05;69147.16;;;14.67;100.00
22930;BME280;11630;42.660;23.292;2023-05-29T01:32:37;69155.91;;;14.65;100.00
22930;BME280;11630;42.660;23.292;2023-05-29T01:35:10;69126.42;;;14.46;100.00
22930;BME280;11630;42.660;23.292;2023-05-29T01:37:41;69109.78;;;14.27;100.00
22930;BME280;11630;42.660;23.292;2023-05-29T01:40:15;69104.06;;;14.23;100.00
22930;BME280;11630;42.660;23.292;2023-05-29T01:42:47;69090.41;;;14.15;100.00
22930;BME280;11630;42.660;23.292;2023-05-29T01:45:18;69100.50;;;14.16;100.00
22930;BME280;11630;42.660;23.292;2023-05-29T01:47:50;69079.76;;;14.04;100.00
22930;BME280;11630;42.660;23.292;2023-05-29T01:50:21;69081.67;;;14.00;100.00
22930;BME280;11630;42.660;23.292;2023-05-29T01:52:53;69071.30;;;13.95;100.00
22930;BME280;11630;42.660;23.292;2023-05-29T01:55:23;69068.56;;;13.90;100.00
22930;BME280;11630;42.660;23.292;2023-05-29T01:57:55;69074.30;;;13.94;100.00
22930;BME280;11630;42.660;23.292;2023-05-29T02:00:28;69065.02;;;13.93;100.00
22930;BME280;11630;42.660;23.292;2023-05-29T02:02:59;69089.02;;;14.05;100.00
22930;BME280;11630;42.660;23.292;2023-05-29T02:05:31;69083.02;;;14.07;100.00
22930;BME280;11630;42.660;23.292;2023-05-29T02:08:02;69087.94;;;14.07;100.00
22930;BME280;11630;42.660;23.292;2023-05-29T02:10:33;69100.78;;;14.17;100.00
22930;BME280;11630;42.660;23.292;2023-05-29T02:13:03;69104.61;;;14.18;100.00
22930;BME280;11630;42.660;23.292;2023-05-29T02:15:34;69095.60;;;14.14;100.00
22930;BME280;11630;42.660;23.292;2023-05-29T02:18:05;69107.61;;;14.30;100.00
22930;BME280;11630;42.660;23.292;2023-05-29T02:20:36;69120.16;;;14.34;100.00
22930;BME280;11630;42.660;23.292;2023-05-29T02:23:09;69125.34;;;14.40;100.00
22930;BME280;11630;42.660;23.292;2023-05-29T02:25:39;69111.95;;;14.36;100.00
22930;BME280;11630;42.660;23.292;2023-05-29T02:28:10;69099.14;;;14.23;100.00
22930;BME280;11630;42.660;23.292;2023-05-29T02:30:41;69082.75;;;14.06;100.00
22930;BME280;11630;42.660;23.292;2023-05-29T02:33:13;69073.20;;;13.93;100.00
22930;BME280;11630;42.660;23.292;2023-05-29T02:35:44;69060.11;;;13.84;100.00
22930;BME280;11630;42.660;23.292;2023-05-29T02:38:15;69075.38;;;14.03;100.00
22930;BME280;11630;42.660;23.292;2023-05-29T02:40:45;69084.38;;;14.10;100.00
22930;BME280;11630;42.660;23.292;2023-05-29T02:43:17;69092.05;;;14.14;100.00
22930;BME280;11630;42.660;23.292;2023-05-29T02:45:48;69087.38;;;14.09;100.00
22930;BME280;11630;42.660;23.292;2023-05-29T02:48:19;69107.33;;;14.23;100.00
22930;BME280;11630;42.660;23.292;2023-05-29T02:50:49;69108.14;;;14.30;100.00
22930;BME280;11630;42.660;23.292;2023-05-29T02:53:20;69122.06;;;14.39;100.00
22930;BME280;11630;42.660;23.292;2023-05-29T02:55:53;69127.80;;;14.48;100.00
22930;BME280;11630;42.660;23.292;2023-05-29T02:58:25;69138.16;;;14.53;100.00
22930;BME280;11630;42.660;23.292;2023-05-29T03:00:56;69132.70;;;14.55;100.00
22930;BME280;11630;42.660;23.292;2023-05-29T03:03:28;69133.25;;;14.53;100.00
22930;BME280;11630;42.660;23.292;2023-05-29T03:05:59;69136.24;;;14.57;100.00
22930;BME280;11630;42.660;23.292;2023-05-29T03:08:29;69144.98;;;14.60;100.00
22930;BME280;11630;42.660;23.292;2023-05-29T03:11:00;69161.09;;;14.71;100.00
22930;BME280;11630;42.660;23.292;2023-05-29T03:13:31;69165.73;;;14.79;100.00
22930;BME280;11630;42.660;23.292;2023-05-29T03:16:02;69169.27;;;14.83;100.00
22930;BME280;11630;42.660;23.292;2023-05-29T03:18:33;69164.64;;;14.83;100.00
22930;BME280;11630;42.660;23.292;2023-05-29T03:21:05;69153.73;;;14.68;100.00
22930;BME280;11630;42.660;23.292;2023-05-29T03:23:41;69148.78;;;14.71;100.00
22930;BME280;11630;42.660;23.292;2023-05-29T03:26:13;69144.16;;;14.60;100.00
22930;BME280;11630;42.660;23.292;2023-05-29T03:28:43;69112.80;;;14.33;100.00
22930;BME280;11630;42.660;23.292;2023-05-29T03:31:14;69134.89;;;14.52;100.00
22930;BME280;11630;42.660;23.292;2023-05-29T03:33:45;69138.42;;;14.61;100.00
22930;BME280;11630;42.660;23.292;2023-05-29T03:36:16;69159.72;;;14.71;100.00
22930;BME280;11630;42.660;23.292;2023-05-29T03:38:47;69173.38;;;14.86;100.00
22930;BME280;11630;42.660;23.292;2023-05-29T03:41:17;69174.20;;;14.93;100.00
22930;BME280;11630;42.660;23.292;2023-05-29T03:43:49;69197.41;;;15.03;100.00
22930;BME280;11630;42.660;23.292;2023-05-29T03:46:20;69201.50;;;15.08;100.00
22930;BME280;11630;42.660;23.292;2023-05-29T03:48:51;69203.41;;;15.11;100.00
22930;BME280;11630;42.660;23.292;2023-05-29T03:51:21;69205.86;;;15.17;100.00
22930;BME280;11630;42.660;23.292;2023-05-29T03:53:52;69214.08;;;15.22;100.00
22930;BME280;11630;42.660;23.292;2023-05-29T03:56:22;69223.12;;;15.26;100.00
22930;BME280;11630;42.660;23.292;2023-05-29T03:58:54;69226.09;;;15.35;100.00
22930;BME280;11630;42.660;23.292;2023-05-29T04:01:25;69223.36;;;15.33;100.00
22930;BME280;11630;42.660;23.292;2023-05-29T04:03:56;69236.22;;;15.38;100.00
22930;BME280;11630;42.660;23.292;2023-05-29T04:06:27;69220.08;;;15.35;100.00
22930;BME280;11630;42.660;23.292;2023-05-29T04:08:57;69213.26;;;15.25;100.00
22930;BME280;11630;42.660;23.292;2023-05-29T04:11:28;69204.77;;;15.21;100.00
22930;BME280;11630;42.660;23.292;2023-05-29T04:14:00;69218.73;;;15.30;100.00
22930;BME280;11630;42.660;23.292;2023-05-29T04:16:31;69215.98;;;15.27;100.00
22930;BME280;11630;42.660;23.292;2023-05-29T04:19:02;69235.64;;;15.47;100.00
22930;BME280;11630;42.660;23.292;2023-05-29T04:21:32;69244.13;;;15.51;100.00
22930;BME280;11630;42.660;23.292;2023-05-29T04:24:02;69262.70;;;15.68;100.00
22930;BME280;11630;42.660;23.292;2023-05-29T04:26:33;69259.97;;;15.63;100.00
22930;BME280;11630;42.660;23.292;2023-05-29T04:29:04;69258.91;;;15.55;100.00
22930;BME280;11630;42.660;23.292;2023-05-29T04:31:35;69254.23;;;15.64;100.00
22930;BME280;11630;42.660;23.292;2023-05-29T04:34:07;69267.91;;;15.67;100.00
22930;BME280;11630;42.660;23.292;2023-05-29T04:36:37;69263.81;;;15.64;100.00
22930;BME280;11630;42.660;23.292;2023-05-29T04:39:08;69235.39;;;15.43;100.00
22930;BME280;11630;42.660;23.292;2023-05-29T04:41:41;69244.42;;;15.48;100.00
22930;BME280;11630;42.660;23.292;2023-05-29T04:44:11;69262.70;;;15.68;100.00
22930;BME280;11630;42.660;23.292;2023-05-29T04:46:42;69287.83;;;15.91;100.00
22930;BME280;11630;42.660;23.292;2023-05-29T04:49:12;69303.95;;;16.07;100.00
22930;BME280;11630;42.660;23.292;2023-05-29T04:51:43;69316.54;;;16.16;100.00
22930;BME280;11630;42.660;23.292;2023-05-29T04:54:14;69335.97;;;16.30;100.00
22930;BME280;11630;42.660;23.292;2023-05-29T04:56:45;69312.42;;;16.11;100.00
22930;BME280;11630;42.660;23.292;2023-05-29T04:59:16;69303.13;;;16.05;100.00
22930;BME280;11630;42.660;23.292;2023-05-29T05:01:49;69309.70;;;16.06;100.00
22930;BME280;11630;42.660;23.292;2023-05-29T05:04:20;69308.31;;;16.11;100.00
22930;BME280;11630;42.660;23.292;2023-05-29T05:06:51;69318.18;;;16.15;100.00
22930;BME280;11630;42.660;23.292;2023-05-29T05:09:21;69298.22;;;16.03;100.00
22930;BME280;11630;42.660;23.292;2023-05-29T05:11:52;69332.94;;;16.26;100.00
22930;BME280;11630;42.660;23.292;2023-05-29T05:14:23;69362.48;;;16.58;100.00
22930;BME280;11630;42.660;23.292;2023-05-29T05:16:54;69345.00;;;16.37;100.00
22930;BME280;11630;42.660;23.292;2023-05-29T05:19:25;69361.66;;;16.56;100.00
22930;BME280;11630;42.660;23.292;2023-05-29T05:21:56;69394.18;;;16.89;100.00
22930;BME280;11630;42.660;23.292;2023-05-29T05:24:27;69358.64;;;16.57;100.00
22930;BME280;11630;42.660;23.292;2023-05-29T05:26:58;69380.53;;;16.72;100.00
22930;BME280;11630;42.660;23.292;2023-05-29T05:29:29;69403.78;;;16.94;100.00
22930;BME280;11630;42.660;23.292;2023-05-29T05:32:02;69389.00;;;16.81;100.00
22930;BME280;11630;42.660;23.292;2023-05-29T05:34:32;69418.53;;;17.07;100.00
22930;BME280;11630;42.660;23.292;2023-05-29T05:37:04;69437.14;;;17.24;100.00
22930;BME280;11630;42.660;23.292;2023-05-29T05:39:35;69429.23;;;17.13;100.00
22930;BME280;11630;42.660;23.292;2023-05-29T05:42:06;69510.77;;;17.90;100.00
22930;BME280;11630;42.660;23.292;2023-05-29T05:44:36;69463.70;;;17.50;100.00
22930;BME280;11630;42.660;23.292;2023-05-29T05:47:07;69472.71;;;17.59;100.00
22930;BME280;11630;42.660;23.292;2023-05-29T05:49:38;69468.07;;;17.56;100.00
22930;BME280;11630;42.660;23.292;2023-05-29T05:52:09;69445.92;;;17.32;100.00
22930;BME280;11630;42.660;23.292;2023-05-29T05:54:39;69457.97;;;17.43;100.00
22930;BME280;11630;42.660;23.292;2023-05-29T05:57:11;69495.23;;;17.62;100.00
22930;BME280;11630;42.660;23.292;2023-05-29T05:59:46;69428.64;;;17.23;100.00
22930;BME280;11630;42.660;23.292;2023-05-29T06:02:22;69451.39;;;17.40;100.00
22930;BME280;11630;42.660;23.292;2023-05-29T06:04:54;69471.09;;;17.55;100.00
22930;BME280;11630;42.660;23.292;2023-05-29T06:07:25;69514.33;;;17.94;100.00
22930;BME280;11630;42.660;23.292;2023-05-29T06:09:56;69562.23;;;18.42;100.00
22930;BME280;11630;42.660;23.292;2023-05-29T06:12:27;69560.63;;;18.33;100.00
22930;BME280;11630;42.660;23.292;2023-05-29T06:14:58;69570.21;;;18.43;100.00
22930;BME280;11630;42.660;23.292;2023-05-29T06:17:28;69540.33;;;18.19;100.00
22930;BME280;11630;42.660;23.292;2023-05-29T06:19:59;69617.36;;;18.78;100.00
22930;BME280;11630;42.660;23.292;2023-05-29T06:22:30;69589.66;;;18.61;100.00
22930;BME280;11630;42.660;23.292;2023-05-29T06:25:01;69569.67;;;18.42;100.00
22930;BME280;11630;42.660;23.292;2023-05-29T06:27:31;69567.43;;;18.48;100.00
22930;BME280;11630;42.660;23.292;2023-05-29T06:30:01;69554.33;;;18.31;100.00
22930;BME280;11630;42.660;23.292;2023-05-29T06:32:32;69590.19;;;18.64;100.00
22930;BME280;11630;42.660;23.292;2023-05-29T06:35:03;69608.27;;;18.78;100.00
22930;BME280;11630;42.660;23.292;2023-05-29T06:37:33;69614.34;;;18.74;100.00
22930;BME280;11630;42.660;23.292;2023-05-29T06:40:08;69522.00;;;17.99;100.00
22930;BME280;11630;42.660;23.292;2023-05-29T06:42:35;69566.92;;;18.42;100.00
22930;BME280;11630;42.660;23.292;2023-05-29T06:45:07;69534.85;;;18.17;100.00
22930;BME280;11630;42.660;23.292;2023-05-29T06:47:38;69553.77;;;18.30;100.00
22930;BME280;11630;42.660;23.292;2023-05-29T06:50:09;69575.67;;;18.53;100.00
22930;BME280;11630;42.660;23.292;2023-05-29T06:52:40;69582.48;;;18.62;100.00
22930;BME280;11630;42.660;23.292;2023-05-29T06:55:11;69643.16;;;18.94;100.00
22930;BME280;11630;42.660;23.292;2023-05-29T06:57:41;69657.92;;;19.17;100.00
22930;BME280;11630;42.660;23.292;2023-05-29T07:00:13;69626.64;;;18.91;100.00
22930;BME280;11630;42.660;23.292;2023-05-29T07:02:43;69575.68;;;18.48;100.00
22930;BME280;11630;42.660;23.292;2023-05-29T07:05:14;69608.53;;;18.82;100.00
22930;BME280;11630;42.660;23.292;2023-05-29T07:07:45;69642.27;;;19.09;100.00
22930;BME280;11630;42.660;23.292;2023-05-29T07:10:16;69674.08;;;19.33;100.00
22930;BME280;11630;42.660;23.292;2023-05-29T07:12:47;69694.34;;;19.54;100.00
22930;BME280;11630;42.660;23.292;2023-05-29T07:15:18;69644.72;;;19.13;100.00
22930;BME280;11630;42.660;23.292;2023-05-29T07:17:48;69663.90;;;19.30;100.00
22930;BME280;11630;42.660;23.292;2023-05-29T07:20:19;69640.61;;;19.10;100.00
22930;BME280;11630;42.660;23.292;2023-05-29T07:22:50;69634.61;;;18.97;100.00
22930;BME280;11630;42.660;23.292;2023-05-29T07:25:20;69629.34;;;19.01;100.00
22930;BME280;11630;42.660;23.292;2023-05-29T07:27:50;69655.98;;;19.19;100.00
22930;BME280;11630;42.660;23.292;2023-05-29T07:30:21;69686.44;;;19.38;100.00
22930;BME280;11630;42.660;23.292;2023-05-29T07:32:52;69685.83;;;19.47;100.00
22930;BME280;11630;42.660;23.292;2023-05-29T07:35:23;69718.97;;;19.84;100.00
22930;BME280;11630;42.660;23.292;2023-05-29T07:37:54;69699.63;;;19.45;100.00
22930;BME280;11630;42.660;23.292;2023-05-29T07:40:25;69722.90;;;19.72;100.00
22930;BME280;11630;42.660;23.292;2023-05-29T07:42:56;69746.97;;;20.07;100.00
22930;BME280;11630;42.660;23.292;2023-05-29T07:45:33;69726.64;;;19.91;100.00
22930;BME280;11630;42.660;23.292;2023-05-29T07:48:00;69748.38;;;20.04;100.00
22930;BME280;11630;42.660;23.292;2023-05-29T07:50:30;69766.22;;;20.14;100.00
22930;BME280;11630;42.660;23.292;2023-05-29T07:53:02;69763.74;;;20.13;100.00
22930;BME280;11630;42.660;23.292;2023-05-29T07:55:34;69782.08;;;20.38;100.00
22930;BME280;11630;42.660;23.292;2023-05-29T07:58:04;69818.03;;;20.65;100.00
22930;BME280;11630;42.660;23.292;2023-05-29T08:00:35;69795.53;;;20.47;100.00
22930;BME280;11630;42.660;23.292;2023-05-29T08:03:06;69824.94;;;20.67;100.00
22930;BME280;11630;42.660;23.292;2023-05-29T08:05:37;69720.91;;;19.82;100.00
22930;BME280;11630;42.660;23.292;2023-05-29T08:08:08;69727.77;;;19.89;100.00
22930;BME280;11630;42.660;23.292;2023-05-29T08:10:40;69734.38;;;19.88;100.00
22930;BME280;11630;42.660;23.292;2023-05-29T08:13:10;69731.94;;;19.82;100.00
22930;BME280;11630;42.660;23.292;2023-05-29T08:15:41;69711.03;;;19.75;100.00
22930;BME280;11630;42.660;23.292;2023-05-29T08:18:12;69749.47;;;20.03;100.00
22930;BME280;11630;42.660;23.292;2023-05-29T08:20:43;69762.56;;;20.24;100.00
22930;BME280;11630;42.660;23.292;2023-05-29T08:23:12;69737.13;;;19.90;100.00
22930;BME280;11630;42.660;23.292;2023-05-29T08:25:43;69768.94;;;20.21;100.00
22930;BME280;11630;42.660;23.292;2023-05-29T08:28:14;69784.05;;;20.29;100.00
22930;BME280;11630;42.660;23.292;2023-05-29T08:30:46;69801.58;;;20.50;100.00
22930;BME280;11630;42.660;23.292;2023-05-29T08:33:18;69813.13;;;20.55;100.00
22930;BME280;11630;42.660;23.292;2023-05-29T08:35:49;69789.23;;;20.40;100.00
22930;BME280;11630;42.660;23.292;2023-05-29T08:38:20;69861.97;;;21.04;100.00
22930;BME280;11630;42.660;23.292;2023-05-29T08:40:51;69869.09;;;21.13;98.34
22930;BME280;11630;42.660;23.292;2023-05-29T08:43:22;69878.43;;;21.19;97.44
22930;BME280;11630;42.660;23.292;2023-05-29T08:45:54;69891.98;;;21.18;98.54
22930;BME280;11630;42.660;23.292;2023-05-29T08:48:26;69855.58;;;21.10;100.00
22930;BME280;11630;42.660;23.292;2023-05-29T08:51:03;69847.12;;;20.96;100.00
22930;BME280;11630;42.660;23.292;2023-05-29T08:53:29;69853.78;;;20.89;100.00
22930;BME280;11630;42.660;23.292;2023-05-29T08:56:01;69872.67;;;21.13;99.55
22930;BME280;11630;42.660;23.292;2023-05-29T08:58:32;69872.92;;;21.17;95.00
22930;BME280;11630;42.660;23.292;2023-05-29T09:01:06;69866.06;;;21.12;94.91
22930;BME280;11630;42.660;23.292;2023-05-29T09:03:37;69887.80;;;21.23;93.91
22930;BME280;11630;42.660;23.292;2023-05-29T09:06:07;69887.80;;;21.23;93.91
22930;BME280;11630;42.660;23.292;2023-05-29T09:08:39;69868.48;;;21.20;94.59
22930;BME280;11630;42.660;23.292;2023-05-29T09:11:10;69844.48;;;20.79;98.59
22930;BME280;11630;42.660;23.292;2023-05-29T09:13:40;69828.20;;;20.75;100.00
22930;BME280;11630;42.660;23.292;2023-05-29T09:16:10;69781.52;;;20.38;100.00
22930;BME280;11630;42.660;23.292;2023-05-29T09:18:41;69795.80;;;20.48;97.52
22930;BME280;11630;42.660;23.292;2023-05-29T09:21:46;69805.91;;;20.61;99.10
22930;BME280;11630;42.660;23.292;2023-05-29T09:23:51;69880.33;;;21.25;93.48
22930;BME280;11630;42.660;23.292;2023-05-29T09:26:22;69918.05;;;21.45;95.17
22930;BME280;11630;42.660;23.292;2023-05-29T09:28:53;69877.40;;;21.11;87.36
22930;BME280;11630;42.660;23.292;2023-05-29T09:31:25;69911.13;;;21.45;86.17
22930;BME280;11630;42.660;23.292;2023-05-29T09:33:56;69988.85;;;22.17;81.75
22930;BME280;11630;42.660;23.292;2023-05-29T09:36:27;69922.95;;;21.57;81.18
22930;BME280;11630;42.660;23.292;2023-05-29T09:39:01;69995.13;;;22.26;78.44
22930;BME280;11630;42.660;23.292;2023-05-29T09:41:32;69995.13;;;22.26;78.44
22930;BME280;11630;42.660;23.292;2023-05-29T09:44:02;70024.66;;;22.39;76.62
22930;BME280;11630;42.660;23.292;2023-05-29T09:46:35;69960.51;;;21.97;78.43
22930;BME280;11630;42.660;23.292;2023-05-29T09:49:11;69999.83;;;22.29;77.63
22930;BME280;11630;42.660;23.292;2023-05-29T09:51:41;70011.95;;;22.38;77.02
22930;BME280;11630;42.660;23.292;2023-05-29T09:54:17;70006.20;;;22.26;75.98
22930;BME280;11630;42.660;23.292;2023-05-29T09:56:47;69978.09;;;22.13;81.01
22930;BME280;11630;42.660;23.292;2023-05-29T09:59:17;70035.99;;;22.43;79.90
22930;BME280;11630;42.660;23.292;2023-05-29T10:02:00;70029.73;;;22.60;71.97
22930;BME280;11630;42.660;23.292;2023-05-29T10:04:29;70079.08;;;22.88;69.71
22930;BME280;11630;42.660;23.292;2023-05-29T10:07:04;70143.30;;;23.32;68.25
22930;BME280;11630;42.660;23.292;2023-05-29T10:09:34;70137.76;;;23.30;69.04
22930;BME280;11630;42.660;23.292;2023-05-29T10:12:09;70082.58;;;23.03;66.98
22930;BME280;11630;42.660;23.292;2023-05-29T10:14:42;70086.85;;;22.88;68.34
22930;BME280;11630;42.660;23.292;2023-05-29T10:17:18;70022.45;;;22.40;73.71
22930;BME280;11630;42.660;23.292;2023-05-29T10:19:51;69971.30;;;21.98;75.99
22930;BME280;11630;42.660;23.292;2023-05-29T10:22:23;69991.55;;;22.24;74.15
22930;BME280;11630;42.660;23.292;2023-05-29T10:24:56;70011.48;;;22.25;71.62
22930;BME280;11630;42.660;23.292;2023-05-29T10:27:29;70033.94;;;22.55;69.59
22930;BME280;11630;42.660;23.292;2023-05-29T10:30:09;70024.05;;;22.48;69.67
22930;BME280;11630;42.660;23.292;2023-05-29T10:32:43;70019.66;;;22.42;70.00
22930;BME280;11630;42.660;23.292;2023-05-29T10:35:25;70074.36;;;22.90;66.75
22930;BME280;11630;42.660;23.292;2023-05-29T10:37:59;70085.58;;;23.07;68.11
22930;BME280;11630;42.660;23.292;2023-05-29T10:40:28;70079.64;;;22.86;68.84
22930;BME280;11630;42.660;23.292;2023-05-29T10:42:59;70087.83;;;23.01;67.47
22930;BME280;11630;42.660;23.292;2023-05-29T10:50:48;70224.86;;;24.22;64.51
22930;BME280;11630;42.660;23.292;2023-05-29T10:53:23;70216.02;;;24.17;65.10
22930;BME280;11630;42.660;23.292;2023-05-29T10:55:54;70160.70;;;23.68;66.19
22930;BME280;11630;42.660;23.292;2023-05-29T10:58:28;70147.32;;;23.47;66.89
22930;BME280;11630;42.660;23.292;2023-05-29T11:00:59;70135.97;;;23.43;67.72
22930;BME280;11630;42.660;23.292;2023-05-29T11:03:33;70089.01;;;22.95;68.51
22930;BME280;11630;42.660;23.292;2023-05-29T11:06:06;70018.56;;;22.41;71.62
22930;BME280;11630;42.660;23.292;2023-05-29T11:08:55;70003.64;;;22.38;74.12
22930;BME280;11630;42.660;23.292;2023-05-29T11:11:31;69983.86;;;22.17;87.44
22930;BME280;11630;42.660;23.292;2023-05-29T11:14:05;69989.63;;;22.24;87.60
22930;BME280;11630;42.660;23.292;2023-05-29T11:16:37;69987.93;;;22.27;87.69
22930;BME280;11630;42.660;23.292;2023-05-29T11:19:09;69970.45;;;21.99;86.86
22930;BME280;11630;42.660;23.292;2023-05-29T11:22:06;69919.64;;;21.52;95.63
22930;BME280;11630;42.660;23.292;2023-05-29T11:24:37;69917.44;;;21.50;95.29
22930;BME280;11630;42.660;23.292;2023-05-29T11:27:10;69917.44;;;21.50;95.29
22930;BME280;11630;42.660;23.292;2023-05-29T11:29:41;69932.22;;;21.73;96.94
22930;BME280;11630;42.660;23.292;2023-05-29T11:32:13;69909.17;;;21.47;97.12
22930;BME280;11630;42.660;23.292;2023-05-29T11:34:46;69825.78;;;20.64;100.00
22930;BME280;11630;42.660;23.292;2023-05-29T11:37:16;69794.70;;;20.47;100.00
22930;BME280;11630;42.660;23.292;2023-05-29T11:39:47;69873.75;;;21.19;95.46
22930;BME280;11630;42.660;23.292;2023-05-29T11:42:18;70005.08;;;22.33;91.23
22930;BME280;11630;42.660;23.292;2023-05-29T11:44:49;70112.55;;;23.28;84.01
22930;BME280;11630;42.660;23.292;2023-05-29T11:47:19;70174.20;;;23.79;67.49
22930;BME280;11630;42.660;23.292;2023-05-29T11:49:50;70174.20;;;23.79;67.49
22930;BME280;11630;42.660;23.292;2023-05-29T11:52:21;70274.20;;;24.61;66.02
22930;BME280;11630;42.660;23.292;2023-05-29T11:54:52;70369.20;;;25.48;62.66
22930;BME280;11630;42.660;23.292;2023-05-29T11:57:22;70426.49;;;26.02;57.47
22930;BME280;11630;42.660;23.292;2023-05-29T11:59:52;70499.84;;;26.65;54.55
22930;BME280;11630;42.660;23.292;2023-05-29T12:02:23;70457.16;;;26.23;56.84
22930;BME280;11630;42.660;23.292;2023-05-29T12:05:01;70353.86;;;25.26;56.72
22930;BME280;11630;42.660;23.292;2023-05-29T12:07:32;70262.38;;;24.49;62.34
22930;BME280;11630;42.660;23.292;2023-05-29T12:10:16;70246.95;;;24.35;67.85
22930;BME280;11630;42.660;23.292;2023-05-29T12:12:55;70135.06;;;23.51;76.30
22930;BME280;11630;42.660;23.292;2023-05-29T12:15:23;70039.27;;;22.48;88.09
22930;BME280;11630;42.660;23.292;2023-05-29T12:17:54;69966.34;;;21.94;96.82
22930;BME280;11630;42.660;23.292;2023-05-29T12:20:25;69884.52;;;21.17;100.00
22930;BME280;11630;42.660;23.292;2023-05-29T12:22:59;69800.16;;;20.57;100.00
22930;BME280;11630;42.660;23.292;2023-05-29T12:25:30;69766.47;;;20.20;100.00
22930;BME280;11630;42.660;23.292;2023-05-29T12:28:01;69741.17;;;20.08;100.00
22930;BME280;11630;42.660;23.292;2023-05-29T12:30:37;69736.28;;;19.96;100.00
22930;BME280;11630;42.660;23.292;2023-05-29T12:33:04;69733.00;;;19.88;100.00
22930;BME280;11630;42.660;23.292;2023-05-29T12:35:36;69729.16;;;19.84;100.00
22930;BME280;11630;42.660;23.292;2023-05-29T12:38:07;69730.55;;;19.82;100.00
22930;BME280;11630;42.660;23.292;2023-05-29T12:40:38;69759.34;;;20.11;100.00
22930;BME280;11630;42.660;23.292;2023-05-29T12:43:09;69750.02;;;20.06;100.00
22930;BME280;11630;42.660;23.292;2023-05-29T12:45:41;69696.28;;;19.52;100.00
22930;BME280;11630;42.660;23.292;2023-05-29T12:48:11;69617.05;;;18.84;100.00
22930;BME280;11630;42.660;23.292;2023-05-29T12:50:42;69575.68;;;18.48;100.00
22930;BME280;11630;42.660;23.292;2023-05-29T12:53:16;69575.66;;;18.55;100.00
22930;BME280;11630;42.660;23.292;2023-05-29T12:55:47;69609.15;;;18.68;100.00
22930;BME280;11630;42.660;23.292;2023-05-29T12:58:18;69617.27;;;18.95;100.00
22930;BME280;11630;42.660;23.292;2023-05-29T13:00:52;69643.93;;;19.03;100.00
22930;BME280;11630;42.660;23.292;2023-05-29T13:03:21;69635.95;;;19.02;100.00
22930;BME280;11630;42.660;23.292;2023-05-29T13:05:53;69666.88;;;19.39;100.00
22930;BME280;11630;42.660;23.292;2023-05-29T13:08:25;69695.97;;;19.58;100.00
22930;BME280;11630;42.660;23.292;2023-05-29T13:10:56;69742.36;;;19.96;100.00
22930;BME280;11630;42.660;23.292;2023-05-29T13:13:26;69783.44;;;20.41;100.00
22930;BME280;11630;42.660;23.292;2023-05-29T13:15:57;69863.63;;;21.03;100.00